createdAt,value
2023-07-06T00:00:08.946Z,96652.56
2023-07-06T00:02:36.838Z,96647.50
2023-07-06T00:05:04.743Z,96646.03
2023-07-06T00:07:35.681Z,96638.03
2023-07-06T00:10:05.796Z,96639.03
2023-07-06T00:12:34.221Z,96633.97
2023-07-06T00:15:02.020Z,96636.53
2023-07-06T00:17:29.853Z,96633.41
2023-07-06T00:19:57.721Z,96635.09
2023-07-06T00:22:26.010Z,96623.16
2023-07-06T00:24:55.160Z,96624.28
2023-07-06T00:27:23.040Z,96627.25
2023-07-06T00:30:08.534Z,96628.38
2023-07-06T00:32:36.310Z,96637.44
2023-07-06T00:35:05.753Z,96632.38
2023-07-06T00:37:33.552Z,96638.66
2023-07-06T00:40:02.740Z,96636.44
2023-07-06T00:42:30.947Z,96643.59
2023-07-06T00:44:59.990Z,96644.19
2023-07-06T00:47:34.120Z,96641.38
2023-07-06T00:50:07.869Z,96648.22
2023-07-06T00:52:38.964Z,96637.66
2023-07-06T00:55:10.247Z,96641.50
2023-07-06T00:57:40.662Z,96640.00
2023-07-06T01:00:09.856Z,96629.75
2023-07-06T01:02:41.231Z,96628.16
2023-07-06T01:05:10.132Z,96628.06
2023-07-06T01:07:40.519Z,96634.00
2023-07-06T01:10:10.977Z,96630.31
2023-07-06T01:12:38.933Z,96627.81
2023-07-06T01:15:08.846Z,96630.56
2023-07-06T01:17:46.519Z,96624.28
2023-07-06T01:20:22.309Z,96620.88
2023-07-06T01:23:23.838Z,96628.47
2023-07-06T01:26:18.193Z,96623.97
2023-07-06T01:29:14.046Z,96629.72
2023-07-06T01:31:49.220Z,96625.28
2023-07-06T01:34:25.824Z,96630.72
2023-07-06T01:37:01.596Z,96633.34
2023-07-06T01:39:29.388Z,96630.22
2023-07-06T01:42:30.909Z,96625.00
2023-07-06T01:45:03.849Z,96624.16
2023-07-06T01:47:36.935Z,96626.31
2023-07-06T01:50:07.784Z,96624.59
2023-07-06T01:52:46.040Z,96622.91
2023-07-06T01:55:22.277Z,96623.97
2023-07-06T01:58:01.757Z,96625.75
2023-07-06T02:00:32.446Z,96626.69
2023-07-06T02:03:04.321Z,96631.53
2023-07-06T02:05:32.728Z,96625.69
2023-07-06T02:08:01.059Z,96628.22
2023-07-06T02:10:31.368Z,96624.38
2023-07-06T02:12:59.223Z,96631.75
2023-07-06T02:15:28.403Z,96634.81
2023-07-06T02:17:57.672Z,96634.72
2023-07-06T02:20:26.868Z,96630.50
2023-07-06T02:22:54.673Z,96625.53
2023-07-06T02:25:22.586Z,96626.41
2023-07-06T02:27:50.386Z,96622.19
2023-07-06T02:30:18.494Z,96623.81
2023-07-06T02:32:47.474Z,96623.59
2023-07-06T02:35:15.390Z,96630.13
2023-07-06T02:37:44.542Z,96625.47
2023-07-06T02:40:14.022Z,96626.97
2023-07-06T02:42:42.825Z,96620.41
2023-07-06T02:45:11.859Z,96616.94
2023-07-06T02:47:42.204Z,96611.97
2023-07-06T02:50:12.902Z,96605.97
2023-07-06T02:52:43.421Z,96607.78
2023-07-06T02:55:12.771Z,96598.38
2023-07-06T02:57:41.744Z,96599.75
2023-07-06T03:00:14.448Z,96604.81
2023-07-06T03:02:43.107Z,96602.13
2023-07-06T03:05:11.448Z,96597.50
2023-07-06T03:07:39.579Z,96600.84
2023-07-06T03:10:10.303Z,96601.13
2023-07-06T03:12:39.794Z,96607.59
2023-07-06T03:15:11.721Z,96605.06
2023-07-06T03:17:40.455Z,96608.44
2023-07-06T03:20:15.249Z,96610.47
2023-07-06T03:22:47.040Z,96614.19
2023-07-06T03:25:15.359Z,96609.69
2023-07-06T03:27:47.966Z,96605.81
2023-07-06T03:30:18.153Z,96606.88
2023-07-06T03:32:45.932Z,96602.16
2023-07-06T03:35:14.671Z,96602.16
2023-07-06T03:37:44.214Z,96600.06
2023-07-06T03:40:15.052Z,96599.81
2023-07-06T03:42:46.037Z,96593.59
2023-07-06T03:45:15.062Z,96585.09
2023-07-06T03:47:44.605Z,96584.09
2023-07-06T03:50:13.692Z,96582.91
2023-07-06T03:52:41.796Z,96586.06
2023-07-06T03:55:14.555Z,96593.31
2023-07-06T03:57:58.943Z,96593.88
2023-07-06T04:00:32.986Z,96591.56
2023-07-06T04:03:05.013Z,96591.06
2023-07-06T04:05:35.990Z,96594.63
2023-07-06T04:08:06.854Z,96589.88
2023-07-06T04:10:36.016Z,96596.00
2023-07-06T04:13:05.880Z,96595.97
2023-07-06T04:15:35.435Z,96597.38
2023-07-06T04:18:04.533Z,96598.97
2023-07-06T04:20:35.612Z,96600.56
2023-07-06T04:23:04.383Z,96595.97
2023-07-06T04:25:34.798Z,96601.44
2023-07-06T04:28:06.459Z,96599.56
2023-07-06T04:30:37.175Z,96591.66
2023-07-06T04:33:08.111Z,96598.75
2023-07-06T04:35:38.318Z,96589.91
2023-07-06T04:38:07.899Z,96599.38
2023-07-06T04:40:36.841Z,96594.78
2023-07-06T04:43:04.662Z,96590.72
2023-07-06T04:45:32.440Z,96601.47
2023-07-06T04:48:01.845Z,96597.13
2023-07-06T04:50:29.971Z,96593.78
2023-07-06T04:52:59.657Z,96598.22
2023-07-06T04:55:30.343Z,96601.06
2023-07-06T04:58:00.422Z,96582.75
2023-07-06T05:00:30.582Z,96573.03
2023-07-06T05:03:02.355Z,96589.00
2023-07-06T05:05:34.512Z,96592.53
2023-07-06T05:08:02.097Z,96594.97
2023-07-06T05:10:29.979Z,96591.41
2023-07-06T05:12:57.936Z,96599.53
2023-07-06T05:15:26.577Z,96594.97
2023-07-06T05:17:55.794Z,96604.19
2023-07-06T05:20:25.893Z,96594.25
2023-07-06T05:22:54.419Z,96601.28
2023-07-06T05:25:22.612Z,96602.63
2023-07-06T05:27:50.625Z,96607.78
2023-07-06T05:30:21.978Z,96606.72
2023-07-06T05:32:51.210Z,96611.38
2023-07-06T05:35:20.266Z,96605.19
2023-07-06T05:37:49.972Z,96600.31
2023-07-06T05:40:17.959Z,96600.88
2023-07-06T05:42:45.767Z,96599.31
2023-07-06T05:45:13.758Z,96593.66
2023-07-06T05:47:41.694Z,96603.38
2023-07-06T05:50:10.722Z,96605.81
2023-07-06T05:52:38.551Z,96612.31
2023-07-06T05:55:08.925Z,96611.25
2023-07-06T05:57:37.275Z,96613.38
2023-07-06T06:00:10.900Z,96617.91
2023-07-06T06:02:39.735Z,96617.63
2023-07-06T06:05:09.279Z,96614.59
2023-07-06T06:07:37.334Z,96616.31
2023-07-06T06:10:05.653Z,96607.38
2023-07-06T06:12:42.845Z,96614.72
2023-07-06T06:15:11.475Z,96611.63
2023-07-06T06:17:39.546Z,96619.75
2023-07-06T06:20:10.402Z,96619.50
2023-07-06T06:22:38.754Z,96610.50
2023-07-06T06:25:07.806Z,96609.50
2023-07-06T06:27:36.974Z,96611.94
2023-07-06T06:30:06.447Z,96612.25
2023-07-06T06:32:36.428Z,96613.88
2023-07-06T06:35:05.480Z,96609.44
2023-07-06T06:37:33.356Z,96610.03
2023-07-06T06:40:01.402Z,96608.66
2023-07-06T06:42:30.526Z,96609.75
2023-07-06T06:45:00.564Z,96608.91
2023-07-06T06:47:28.494Z,96611.22
2023-07-06T06:49:56.457Z,96608.38
2023-07-06T06:52:24.236Z,96614.19
2023-07-06T06:54:53.307Z,96600.69
2023-07-06T06:57:22.005Z,96615.19
2023-07-06T06:59:49.984Z,96604.19
2023-07-06T07:02:19.188Z,96605.56
2023-07-06T07:04:47.095Z,96610.41
2023-07-06T07:07:14.897Z,96609.41
2023-07-06T07:09:42.809Z,96608.47
2023-07-06T07:12:10.797Z,96606.81
2023-07-06T07:14:39.128Z,96606.63
2023-07-06T07:17:08.340Z,96610.19
2023-07-06T07:19:37.726Z,96613.63
2023-07-06T07:22:06.610Z,96620.38
2023-07-06T07:24:35.207Z,96617.72
2023-07-06T07:27:03.585Z,96619.16
2023-07-06T07:29:31.665Z,96624.03
2023-07-06T07:31:59.550Z,96613.75
2023-07-06T07:34:28.424Z,96618.31
2023-07-06T07:36:57.986Z,96615.56
2023-07-06T07:39:25.854Z,96609.63
2023-07-06T07:41:53.959Z,96610.66
2023-07-06T07:44:22.763Z,96611.34
2023-07-06T07:46:50.895Z,96599.56
2023-07-06T07:49:19.012Z,96608.22
2023-07-06T07:51:47.329Z,96611.97
2023-07-06T07:54:16.470Z,96607.94
2023-07-06T07:56:44.463Z,96609.78
2023-07-06T07:59:13.316Z,96623.50
2023-07-06T08:01:43.753Z,96620.28
2023-07-06T08:04:11.728Z,96621.78
2023-07-06T08:06:41.917Z,96627.19
2023-07-06T08:09:10.592Z,96616.94
2023-07-06T08:11:42.807Z,96613.09
2023-07-06T08:14:11.486Z,96621.47
2023-07-06T08:16:41.796Z,96622.78
2023-07-06T08:19:35.455Z,96624.69
2023-07-06T08:22:10.180Z,96623.88
2023-07-06T08:24:39.473Z,96625.25
2023-07-06T08:27:08.769Z,96621.16
2023-07-06T08:29:36.582Z,96618.13
2023-07-06T08:32:05.205Z,96617.88
2023-07-06T08:34:32.985Z,96626.06
2023-07-06T08:37:01.043Z,96630.25
2023-07-06T08:39:28.876Z,96628.69
2023-07-06T08:41:59.065Z,96632.47
2023-07-06T08:44:28.623Z,96625.09
2023-07-06T08:46:57.098Z,96631.56
2023-07-06T08:49:30.578Z,96630.16
2023-07-06T08:52:03.336Z,96634.03
2023-07-06T08:54:32.577Z,96626.44
2023-07-06T08:57:02.599Z,96632.69
2023-07-06T08:59:39.932Z,96628.56
2023-07-06T09:02:18.376Z,96631.94
2023-07-06T09:04:48.214Z,96622.50
2023-07-06T09:07:18.046Z,96625.78
2023-07-06T09:09:47.766Z,96622.28
2023-07-06T09:12:21.944Z,96632.38
2023-07-06T09:14:54.464Z,96632.63
2023-07-06T09:17:23.234Z,96625.47
2023-07-06T09:19:52.839Z,96629.06
2023-07-06T09:22:23.028Z,96623.63
2023-07-06T09:24:51.685Z,96627.63
2023-07-06T09:27:21.542Z,96625.75
2023-07-06T09:30:02.857Z,96621.03
2023-07-06T09:32:34.586Z,96623.75
2023-07-06T09:35:07.288Z,96623.31
2023-07-06T09:37:35.166Z,96624.25
2023-07-06T09:40:06.615Z,96618.94
2023-07-06T09:42:35.573Z,96614.69
2023-07-06T09:45:16.982Z,96613.81
2023-07-06T09:47:53.732Z,96619.97
2023-07-06T09:50:25.334Z,96620.22
2023-07-06T09:52:53.673Z,96612.75
2023-07-06T09:55:26.252Z,96607.28
2023-07-06T09:57:55.416Z,96607.72
2023-07-06T10:00:31.032Z,96616.13
2023-07-06T10:03:04.803Z,96615.81
2023-07-06T10:05:42.019Z,96618.56
2023-07-06T10:08:13.990Z,96611.28
2023-07-06T10:10:53.311Z,96616.94
2023-07-06T10:13:32.746Z,96609.50
2023-07-06T10:16:12.429Z,96617.19
2023-07-06T10:18:50.565Z,96611.94
2023-07-06T10:21:23.908Z,96616.88
2023-07-06T10:24:01.939Z,96618.78
2023-07-06T10:26:33.638Z,96613.38
2023-07-06T10:29:05.774Z,96613.34
2023-07-06T10:31:40.226Z,96621.03
2023-07-06T10:34:16.321Z,96615.25
2023-07-06T10:36:45.926Z,96613.72
2023-07-06T10:39:15.822Z,96617.28
2023-07-06T10:41:46.900Z,96611.72
2023-07-06T10:44:47.856Z,96602.22
2023-07-06T10:47:43.037Z,96606.81
2023-07-06T10:50:27.823Z,96605.78
2023-07-06T10:53:03.883Z,96602.09
2023-07-06T10:55:36.323Z,96602.22
2023-07-06T10:58:22.478Z,96615.44
2023-07-06T11:00:52.025Z,96601.81
2023-07-06T11:03:26.061Z,96600.28
2023-07-06T11:05:57.050Z,96597.91
2023-07-06T11:09:03.072Z,96590.97
2023-07-06T11:11:33.856Z,96595.63
2023-07-06T11:14:19.765Z,96595.09
2023-07-06T11:16:53.954Z,96593.66
2023-07-06T11:19:28.452Z,96593.06
2023-07-06T11:22:02.005Z,96589.91
2023-07-06T11:24:35.012Z,96590.69
2023-07-06T11:27:07.553Z,96591.50
2023-07-06T11:29:35.424Z,96583.19
2023-07-06T11:32:12.541Z,96590.97
2023-07-06T11:34:52.221Z,96591.38
2023-07-06T11:37:33.087Z,96595.16
2023-07-06T11:40:18.571Z,96593.31
2023-07-06T11:43:00.473Z,96583.25
2023-07-06T11:45:37.109Z,96594.44
2023-07-06T11:48:17.265Z,96587.78
2023-07-06T11:50:47.868Z,96589.16
2023-07-06T11:53:30.901Z,96571.44
2023-07-06T11:56:07.146Z,96580.38
2023-07-06T11:58:55.124Z,96577.31
2023-07-06T12:01:41.816Z,96579.03
2023-07-06T12:04:16.064Z,96574.25
2023-07-06T12:06:47.345Z,96573.59
2023-07-06T12:09:20.295Z,96564.81
2023-07-06T12:11:54.129Z,96558.50
2023-07-06T12:14:23.167Z,96560.09
2023-07-06T12:16:55.908Z,96559.44
2023-07-06T12:19:24.957Z,96551.28
2023-07-06T12:21:56.468Z,96543.25
2023-07-06T12:24:26.075Z,96546.47
2023-07-06T12:26:57.597Z,96552.34
2023-07-06T12:29:28.361Z,96542.88
2023-07-06T12:32:07.959Z,96545.16
2023-07-06T12:34:36.774Z,96544.25
2023-07-06T12:37:06.667Z,96540.91
2023-07-06T12:39:40.812Z,96537.69
2023-07-06T12:42:12.484Z,96541.34
2023-07-06T12:44:42.000Z,96545.28
2023-07-06T12:47:24.255Z,96546.63
2023-07-06T12:49:57.531Z,96543.41
2023-07-06T12:52:28.258Z,96538.31
2023-07-06T12:54:57.691Z,96543.38
2023-07-06T12:57:29.279Z,96534.75
2023-07-06T12:59:59.362Z,96522.63
2023-07-06T13:02:31.384Z,96536.63
2023-07-06T13:04:59.489Z,96520.94
2023-07-06T13:07:30.321Z,96523.81
2023-07-06T13:09:58.068Z,96519.28
2023-07-06T13:12:32.829Z,96523.38
2023-07-06T13:15:04.292Z,96515.91
2023-07-06T13:17:41.203Z,96513.66
2023-07-06T13:20:10.220Z,96501.81
2023-07-06T13:22:39.555Z,96501.44
2023-07-06T13:25:14.417Z,96494.06
2023-07-06T13:27:42.522Z,96486.81
2023-07-06T13:30:12.869Z,96488.81
2023-07-06T13:32:42.831Z,96492.34
2023-07-06T13:35:12.890Z,96496.25
2023-07-06T13:37:45.053Z,96498.47
2023-07-06T13:40:16.334Z,96497.75
2023-07-06T13:42:47.557Z,96499.75
2023-07-06T13:45:16.704Z,96499.56
2023-07-06T13:47:44.606Z,96497.72
2023-07-06T13:50:13.302Z,96502.50
2023-07-06T13:52:42.560Z,96499.22
2023-07-06T13:55:19.417Z,96503.25
2023-07-06T13:57:47.482Z,96504.88
2023-07-06T14:00:16.087Z,96499.19
2023-07-06T14:02:45.770Z,96491.50
2023-07-06T14:05:14.832Z,96493.47
2023-07-06T14:07:44.181Z,96496.56
2023-07-06T14:10:12.253Z,96497.09
2023-07-06T14:12:40.177Z,96487.56
2023-07-06T14:15:11.681Z,96495.72
2023-07-06T14:17:39.673Z,96491.88
2023-07-06T14:20:11.489Z,96492.88
2023-07-06T14:22:40.859Z,96493.06
2023-07-06T14:25:21.786Z,96479.25
2023-07-06T14:27:51.698Z,96484.94
2023-07-06T14:30:19.737Z,96485.66
2023-07-06T14:32:48.324Z,96487.91
2023-07-06T14:35:17.514Z,96481.75
2023-07-06T14:37:45.965Z,96482.84
2023-07-06T14:40:15.490Z,96483.81
2023-07-06T14:42:43.385Z,96475.88
2023-07-06T14:45:11.966Z,96480.31
2023-07-06T14:47:39.779Z,96484.06
2023-07-06T14:50:10.160Z,96476.69
2023-07-06T14:52:38.448Z,96469.78
2023-07-06T14:55:07.517Z,96479.38
2023-07-06T14:57:36.746Z,96473.34
2023-07-06T15:00:06.538Z,96470.50
2023-07-06T15:02:34.440Z,96469.78
2023-07-06T15:05:02.447Z,96470.81
2023-07-06T15:07:30.248Z,96468.81
2023-07-06T15:09:58.010Z,96459.81
2023-07-06T15:12:25.808Z,96460.34
2023-07-06T15:14:55.008Z,96464.25
2023-07-06T15:17:23.645Z,96469.97
2023-07-06T15:19:51.501Z,96465.00
2023-07-06T15:22:19.410Z,96464.84
2023-07-06T15:24:47.209Z,96472.34
2023-07-06T15:27:15.014Z,96462.94
2023-07-06T15:29:42.970Z,96464.66
2023-07-06T15:32:12.352Z,96462.25
2023-07-06T15:34:55.672Z,96454.75
2023-07-06T15:37:28.002Z,96460.75
2023-07-06T15:39:58.439Z,96449.88
2023-07-06T15:42:26.801Z,96451.63
2023-07-06T15:44:54.663Z,96450.00
2023-07-06T15:47:25.310Z,96446.34
2023-07-06T15:49:53.189Z,96446.41
2023-07-06T15:52:21.103Z,96440.84
2023-07-06T15:54:49.075Z,96444.38
2023-07-06T15:57:16.887Z,96448.13
2023-07-06T15:59:48.209Z,96455.94
2023-07-06T16:04:47.390Z,96449.09
2023-07-06T16:07:15.197Z,96447.22
2023-07-06T16:09:42.975Z,96443.00
2023-07-06T16:12:11.205Z,96447.59
2023-07-06T16:14:39.070Z,96446.00
2023-07-06T16:17:07.846Z,96449.41
2023-07-06T16:19:35.674Z,96443.72
2023-07-06T16:22:05.282Z,96444.31
2023-07-06T16:24:33.069Z,96448.66
2023-07-06T16:27:00.866Z,96441.09
2023-07-06T16:29:28.770Z,96448.28
2023-07-06T16:31:57.460Z,96452.81
2023-07-06T16:34:25.323Z,96452.28
2023-07-06T16:36:53.125Z,96455.56
2023-07-06T16:39:22.372Z,96454.16
2023-07-06T16:41:50.182Z,96447.22
2023-07-06T16:44:20.522Z,96443.72
2023-07-06T16:46:50.363Z,96445.69
2023-07-06T16:49:18.717Z,96451.09
2023-07-06T16:51:47.670Z,96452.75
2023-07-06T16:54:15.508Z,96461.19
2023-07-06T16:56:44.669Z,96452.84
2023-07-06T16:59:12.433Z,96458.31
2023-07-06T17:01:40.348Z,96463.69
2023-07-06T17:04:08.238Z,96466.31
2023-07-06T17:06:36.098Z,96474.63
2023-07-06T17:09:04.093Z,96471.88
2023-07-06T17:11:31.990Z,96473.81
2023-07-06T17:14:01.733Z,96468.53
2023-07-06T17:16:29.761Z,96478.00
2023-07-06T17:18:57.566Z,96476.72
2023-07-06T17:21:26.011Z,96478.97
2023-07-06T17:23:54.451Z,96477.84
2023-07-06T17:26:22.206Z,96490.41
2023-07-06T17:28:49.999Z,96484.41
2023-07-06T17:31:20.055Z,96478.63
2023-07-06T17:33:47.869Z,96483.75
2023-07-06T17:36:15.759Z,96483.06
2023-07-06T17:38:43.539Z,96490.94
2023-07-06T17:41:12.959Z,96491.09
2023-07-06T17:43:41.468Z,96488.97
2023-07-06T17:46:09.623Z,96483.38
2023-07-06T17:48:39.021Z,96478.19
2023-07-06T17:51:08.616Z,96478.00
2023-07-06T17:53:36.865Z,96490.28
2023-07-06T17:56:05.396Z,96486.81
2023-07-06T17:58:33.178Z,96494.63
2023-07-06T18:01:01.021Z,96494.72
2023-07-06T18:03:30.038Z,96494.25
2023-07-06T18:05:59.586Z,96487.41
2023-07-06T18:08:27.641Z,96496.13
2023-07-06T18:10:56.265Z,96496.16
2023-07-06T18:13:24.141Z,96501.09
2023-07-06T18:15:52.848Z,96502.28
2023-07-06T18:18:20.688Z,96504.00
2023-07-06T18:20:48.881Z,96503.94
2023-07-06T18:23:18.110Z,96501.88
2023-07-06T18:25:46.505Z,96497.97
2023-07-06T18:28:15.405Z,96506.78
2023-07-06T18:30:43.290Z,96514.91
2023-07-06T18:33:11.098Z,96513.19
2023-07-06T18:35:38.863Z,96514.38
2023-07-06T18:38:06.763Z,96515.63
2023-07-06T18:40:35.903Z,96519.56
2023-07-06T18:43:03.680Z,96518.66
2023-07-06T18:45:41.497Z,96519.28
2023-07-06T18:48:10.451Z,96521.28
2023-07-06T18:50:38.465Z,96525.81
2023-07-06T18:53:06.314Z,96536.31
2023-07-06T18:55:35.633Z,96523.22
2023-07-06T18:58:03.726Z,96531.03
2023-07-06T19:00:32.281Z,96529.59
2023-07-06T19:03:00.138Z,96530.00
2023-07-06T19:05:28.494Z,96518.03
2023-07-06T19:08:01.741Z,96528.34
2023-07-06T19:10:31.085Z,96531.34
2023-07-06T19:13:00.281Z,96532.75
2023-07-06T19:15:28.078Z,96538.38
2023-07-06T19:17:55.936Z,96535.34
2023-07-06T19:20:23.776Z,96539.69
2023-07-06T19:22:52.351Z,96536.16
2023-07-06T19:25:20.414Z,96539.63
2023-07-06T19:27:48.306Z,96537.88
2023-07-06T19:30:17.801Z,96549.31
2023-07-06T19:32:45.986Z,96543.78
2023-07-06T19:35:13.870Z,96547.84
2023-07-06T19:37:42.876Z,96542.75
2023-07-06T19:40:11.627Z,96555.81
2023-07-06T19:42:39.428Z,96556.84
2023-07-06T19:45:08.547Z,96562.22
2023-07-06T19:47:37.916Z,96562.16
2023-07-06T19:50:06.170Z,96564.25
2023-07-06T19:52:35.062Z,96570.81
2023-07-06T19:55:02.898Z,96566.75
2023-07-06T19:57:43.175Z,96573.00
2023-07-06T20:00:14.732Z,96572.25
2023-07-06T20:02:45.254Z,96569.03
2023-07-06T20:05:13.322Z,96575.94
2023-07-06T20:07:41.117Z,96573.22
2023-07-06T20:10:10.084Z,96572.84
2023-07-06T20:12:37.893Z,96578.41
2023-07-06T20:15:06.937Z,96565.94
2023-07-06T20:17:35.637Z,96575.03
2023-07-06T20:20:05.676Z,96572.94
2023-07-06T20:22:33.544Z,96578.38
2023-07-06T20:25:01.314Z,96586.53
2023-07-06T20:27:29.132Z,96586.53
2023-07-06T20:29:57.123Z,96590.13
2023-07-06T20:32:25.097Z,96599.41
2023-07-06T20:34:53.097Z,96593.22
2023-07-06T20:37:22.275Z,96600.09
2023-07-06T20:39:50.759Z,96601.16
2023-07-06T20:42:19.781Z,96596.03
2023-07-06T20:44:48.590Z,96604.97
2023-07-06T20:47:16.463Z,96596.09
2023-07-06T20:49:45.659Z,96608.53
2023-07-06T20:52:16.158Z,96603.63
2023-07-06T20:54:45.366Z,96611.75
2023-07-06T20:57:13.146Z,96610.94
2023-07-06T20:59:41.021Z,96607.41
2023-07-06T21:02:11.625Z,96616.41
2023-07-06T21:04:39.720Z,96608.28
2023-07-06T21:07:07.882Z,96614.81
2023-07-06T21:09:36.881Z,96607.72
2023-07-06T21:12:06.872Z,96604.84
2023-07-06T21:14:34.990Z,96612.69
2023-07-06T21:17:02.795Z,96610.56
2023-07-06T21:19:30.609Z,96607.03
2023-07-06T21:21:58.417Z,96612.97
2023-07-06T21:24:26.516Z,96620.06
2023-07-06T21:26:54.487Z,96618.94
2023-07-06T21:29:23.796Z,96615.16
2023-07-06T21:31:51.699Z,96624.41
2023-07-06T21:34:20.895Z,96625.38
2023-07-06T21:36:48.810Z,96627.81
2023-07-06T21:39:18.152Z,96629.75
2023-07-06T21:41:45.962Z,96615.94
2023-07-06T21:44:14.963Z,96633.88
2023-07-06T21:46:44.223Z,96627.06
2023-07-06T21:49:12.019Z,96623.25
2023-07-06T21:51:39.893Z,96630.78
2023-07-06T21:54:08.122Z,96633.19
2023-07-06T21:56:36.796Z,96628.19
2023-07-06T21:59:05.079Z,96629.81
2023-07-06T22:01:33.207Z,96631.72
2023-07-06T22:04:02.579Z,96630.16
2023-07-06T22:06:31.359Z,96622.88
2023-07-06T22:08:59.224Z,96621.78
2023-07-06T22:11:29.553Z,96629.03
2023-07-06T22:13:57.382Z,96633.97
2023-07-06T22:16:26.045Z,96631.47
2023-07-06T22:18:53.846Z,96625.06
2023-07-06T22:21:23.111Z,96631.47
2023-07-06T22:23:50.915Z,96635.03
2023-07-06T22:26:18.757Z,96633.72
2023-07-06T22:28:46.587Z,96642.66
2023-07-06T22:31:14.850Z,96641.56
2023-07-06T22:33:42.760Z,96644.25
2023-07-06T22:36:12.175Z,96634.81
2023-07-06T22:38:44.619Z,96642.41
2023-07-06T22:41:12.484Z,96642.44
2023-07-06T22:43:40.370Z,96635.97
2023-07-06T22:46:08.605Z,96637.59
2023-07-06T22:48:36.507Z,96640.34
2023-07-06T22:51:04.405Z,96639.25
2023-07-06T22:53:34.209Z,96625.22
2023-07-06T22:56:03.652Z,96648.75
2023-07-06T22:58:31.453Z,96636.31
2023-07-06T23:00:59.534Z,96644.69
2023-07-06T23:03:27.835Z,96636.09
2023-07-06T23:06:03.304Z,96636.09
2023-07-06T23:08:31.343Z,96634.75
2023-07-06T23:10:59.519Z,96643.13
2023-07-06T23:13:31.047Z,96637.44
2023-07-06T23:15:59.695Z,96637.16
2023-07-06T23:18:27.573Z,96642.03
2023-07-06T23:20:55.598Z,96638.50
2023-07-06T23:23:23.739Z,96637.72
2023-07-06T23:25:52.001Z,96645.00
2023-07-06T23:28:23.188Z,96637.97
2023-07-06T23:30:54.664Z,96642.03
2023-07-06T23:33:22.961Z,96638.28
2023-07-06T23:35:50.919Z,96636.09
2023-07-06T23:38:23.243Z,96640.69
2023-07-06T23:40:51.330Z,96637.97
2023-07-06T23:43:19.125Z,96638.53
2023-07-06T23:45:47.291Z,96641.22
2023-07-06T23:48:16.580Z,96642.56
2023-07-06T23:50:44.441Z,96648.25
2023-07-06T23:53:12.423Z,96648.53
2023-07-06T23:55:40.192Z,96645.81
2023-07-06T23:58:07.997Z,96646.63
